Time;durP1;ratioP1;P1;durP2;ratioP2;P2;SDS_P1;SDS_P2;PMS_P1;PMS_P2;Temp;Humidity;BMP_temperature;BMP_pressure;BME280_temperature;BME280_humidity;BME280_pressure;Samples;Min_cycle;Max_cycle;Signal;HPM_P1;HPM_P2
2023/10/09 00:02:48;;;;;;;4.30;3.55;;;19.10;79.10;;;;;;10494328;28;20059;-58
2023/10/09 00:07:49;;;;;;;5.03;3.30;;;19.10;79.10;;;;;;10475906;28;20092;-58
2023/10/09 00:12:50;;;;;;;4.93;3.67;;;19.10;79.10;;;;;;10493599;28;20032;-58
2023/10/09 00:17:51;;;;;;;4.50;3.55;;;19.10;79.10;;;;;;10458430;28;20053;-58
2023/10/09 00:22:52;;;;;;;4.53;3.63;;;19.10;79.10;;;;;;10493020;28;20484;-58
2023/10/09 00:27:52;;;;;;;5.03;3.47;;;19.10;79.10;;;;;;10492914;28;20055;-58
2023/10/09 00:33:03;;;;;;;4.72;3.05;;;19.10;79.10;;;;;;10475027;28;20491;-58
2023/10/09 00:38:21;;;;;;;4.90;3.72;;;19.00;79.00;;;;;;10492531;28;20032;-58
2023/10/09 00:43:29;;;;;;;5.25;3.60;;;19.10;79.00;;;;;;10492374;28;20032;-58
2023/10/09 00:48:37;;;;;;;4.90;3.85;;;19.10;79.10;;;;;;10491587;28;20544;-58
2023/10/09 00:53:38;;;;;;;6.88;3.45;;;19.00;79.00;;;;;;10492133;28;20028;-58
2023/10/09 00:58:40;;;;;;;5.30;4.03;;;19.00;79.00;;;;;;10481419;28;20045;-58
2023/10/09 01:03:40;;;;;;;4.57;3.80;;;19.00;79.00;;;;;;10478964;28;20353;-58
2023/10/09 01:18:59;;;;;;;5.53;4.22;;;19.00;79.00;;;;;;10409178;28;20084;-58
2023/10/09 01:24:09;;;;;;;7.90;3.83;;;19.00;79.00;;;;;;10408592;28;20038;-57
2023/10/09 01:29:16;;;;;;;5.50;3.83;;;19.00;79.00;;;;;;10408259;28;20033;-58
2023/10/09 01:34:38;;;;;;;6.32;4.13;;;19.00;79.00;;;;;;10407179;28;20037;-58
2023/10/09 01:39:40;;;;;;;4.90;3.75;;;19.00;79.60;;;;;;10407910;28;20033;-58
2023/10/09 01:44:44;;;;;;;5.63;4.40;;;19.00;79.00;;;;;;10408202;28;20045;-58
2023/10/09 01:49:52;;;;;;;5.50;3.67;;;19.00;79.00;;;;;;10408510;28;20022;-58
2023/10/09 01:54:53;;;;;;;6.13;4.07;;;19.00;79.00;;;;;;10407365;28;20076;-58
2023/10/09 01:59:54;;;;;;;4.78;3.67;;;19.00;79.00;;;;;;10407456;28;20079;-58
2023/10/09 02:05:24;;;;;;;6.20;4.40;;;19.00;79.00;;;;;;10414688;28;20037;-58
2023/10/09 02:10:31;;;;;;;3.95;3.15;;;19.00;78.90;;;;;;10415970;28;20025;-58
2023/10/09 02:15:51;;;;;;;4.95;3.58;;;19.00;79.00;;;;;;10439463;28;20064;-58
2023/10/09 02:26:06;;;;;;;5.35;3.75;;;19.00;78.90;;;;;;10497872;28;20040;-58
2023/10/09 02:31:13;;;;;;;5.57;3.80;;;19.00;79.00;;;;;;10496959;28;20421;-58
2023/10/09 02:36:13;;;;;;;6.03;4.30;;;18.90;78.90;;;;;;10497460;28;20037;-58
2023/10/09 02:41:20;;;;;;;4.32;3.10;;;19.00;79.00;;;;;;10496886;28;20048;-58
2023/10/09 02:46:32;;;;;;;4.80;3.35;;;18.90;78.90;;;;;;10496786;28;20048;-58
2023/10/09 02:51:33;;;;;;;4.72;3.58;;;18.90;78.90;;;;;;10496618;28;20036;-58
2023/10/09 02:56:47;;;;;;;4.88;3.70;;;18.90;78.90;;;;;;10496576;28;20492;-58
2023/10/09 03:01:49;;;;;;;4.47;3.15;;;18.90;78.90;;;;;;10496412;28;20656;-58
2023/10/09 03:06:50;;;;;;;5.75;3.65;;;18.90;78.90;;;;;;10496420;28;20108;-58
2023/10/09 03:11:55;;;;;;;6.05;4.15;;;18.90;78.90;;;;;;10495062;28;20514;-59
2023/10/09 03:16:56;;;;;;;4.47;3.75;;;18.90;78.90;;;;;;10496026;28;20135;-58
2023/10/09 03:21:57;;;;;;;4.47;2.90;;;18.90;78.90;;;;;;10495754;28;20514;-58
2023/10/09 03:26:58;;;;;;;4.70;3.65;;;18.90;78.90;;;;;;10496335;28;20035;-58
2023/10/09 03:32:00;;;;;;;4.90;3.83;;;18.90;78.90;;;;;;10494993;28;20040;-58
2023/10/09 03:37:03;;;;;;;4.38;3.00;;;18.90;78.90;;;;;;10495191;28;20025;-58
2023/10/09 03:42:05;;;;;;;5.95;4.03;;;18.90;78.90;;;;;;10494590;28;20037;-58
2023/10/09 03:47:09;;;;;;;5.07;3.85;;;18.90;78.90;;;;;;10494805;28;20368;-58
2023/10/09 03:52:11;;;;;;;5.03;3.92;;;18.90;78.80;;;;;;10494187;28;20032;-58
2023/10/09 03:57:18;;;;;;;4.72;3.38;;;18.90;78.90;;;;;;10494512;28;20134;-58
2023/10/09 04:02:18;;;;;;;5.30;3.67;;;18.90;78.80;;;;;;10493803;28;20020;-58
2023/10/09 04:07:21;;;;;;;4.32;3.30;;;18.90;78.80;;;;;;10492865;28;20032;-58
2023/10/09 04:12:24;;;;;;;6.03;3.90;;;18.90;78.80;;;;;;10490745;28;20035;-58
2023/10/09 04:17:34;;;;;;;4.60;3.22;;;19.00;79.30;;;;;;10490023;28;20529;-58
2023/10/09 04:22:42;;;;;;;6.38;3.67;;;19.00;79.10;;;;;;10489188;28;20024;-58
2023/10/09 04:27:44;;;;;;;6.47;3.22;;;19.00;79.10;;;;;;10472756;28;20457;-58
2023/10/09 04:32:45;;;;;;;6.53;4.45;;;19.00;79.10;;;;;;10489694;28;20067;-59
2023/10/09 04:37:52;;;;;;;5.50;4.28;;;19.00;79.10;;;;;;10490302;28;20063;-60
2023/10/09 04:42:58;;;;;;;5.80;4.05;;;19.00;79.00;;;;;;10489259;28;20371;-58
2023/10/09 04:48:06;;;;;;;8.95;4.05;;;19.00;79.10;;;;;;10489846;28;20108;-58
2023/10/09 04:58:23;;;;;;;5.40;3.72;;;19.00;79.10;;;;;;10484749;28;20106;-58
2023/10/09 05:03:25;;;;;;;12.38;4.18;;;18.90;79.20;;;;;;10490154;28;20115;-58
2023/10/09 05:18:41;;;;;;;12.27;4.60;;;19.20;78.90;;;;;;10491716;28;20064;-59
2023/10/09 05:29:18;;;;;;;9.18;4.15;;;19.30;78.80;;;;;;10491453;28;20111;-58
2023/10/09 05:34:21;;;;;;;6.90;4.47;;;19.20;79.10;;;;;;10488152;28;20096;-57
2023/10/09 05:39:40;;;;;;;10.25;3.63;;;19.20;79.00;;;;;;10475945;28;20587;-57
2023/10/09 05:46:07;;;;;;;11.95;4.43;;;19.20;79.30;;;;;;10485449;28;20116;-56
2023/10/09 06:06:07;;;;;;;20.35;4.65;;;19.10;79.40;;;;;;10486647;28;20037;-58
2023/10/09 06:16:59;;;;;;;14.98;5.75;;;19.20;79.20;;;;;;10491140;28;20484;-58
2023/10/09 06:32:34;;;;;;;9.88;4.30;;;19.00;79.50;;;;;;10488039;28;20372;-57
2023/10/09 06:37:34;;;;;;;8.57;4.10;;;19.00;79.50;;;;;;10488336;28;20094;-58
2023/10/09 06:47:41;;;;;;;8.05;4.03;;;19.10;79.50;;;;;;10491295;28;20035;-57
2023/10/09 06:52:57;;;;;;;6.97;3.95;;;19.10;79.30;;;;;;10494866;28;20031;-58
2023/10/09 06:58:01;;;;;;;13.25;4.38;;;19.10;79.40;;;;;;10494775;28;20635;-58
2023/10/09 07:03:11;;;;;;;5.80;3.50;;;19.10;79.40;;;;;;10494639;28;20032;-57
2023/10/09 07:08:31;;;;;;;13.10;4.65;;;19.10;79.40;;;;;;10495292;28;20024;-58
2023/10/09 07:13:37;;;;;;;10.05;5.13;;;19.10;79.40;;;;;;10494550;28;20060;-58
2023/10/09 07:18:49;;;;;;;8.80;4.32;;;19.10;79.40;;;;;;10494272;28;20048;-56
2023/10/09 07:23:55;;;;;;;8.60;4.00;;;19.10;79.40;;;;;;10493874;28;20035;-58
2023/10/09 07:29:21;;;;;;;6.38;4.30;;;19.10;79.40;;;;;;10493425;28;20063;-59
2023/10/09 07:34:52;;;;;;;7.57;4.35;;;19.20;79.60;;;;;;10493406;28;20067;-59
2023/10/09 07:39:58;;;;;;;9.43;3.67;;;19.20;79.50;;;;;;10485945;28;20629;-57
2023/10/09 07:45:12;;;;;;;5.43;3.50;;;19.20;79.70;;;;;;10492766;28;20037;-58
2023/10/09 07:50:21;;;;;;;7.22;4.25;;;19.20;79.80;;;;;;10494566;28;20020;-58
2023/10/09 07:55:39;;;;;;;8.40;4.97;;;19.20;79.70;;;;;;10492314;28;20477;-58
2023/10/09 08:06:37;;;;;;;17.73;4.20;;;19.20;79.50;;;;;;10491871;28;20044;-59
2023/10/09 08:17:20;;;;;;;11.32;4.45;;;19.20;80.20;;;;;;10362665;28;20468;-57
2023/10/09 08:32:38;;;;;;;12.63;4.50;;;19.20;79.50;;;;;;10365048;28;20072;-59
2023/10/09 08:37:39;;;;;;;8.52;4.32;;;19.20;79.50;;;;;;10373212;28;20477;-58
2023/10/09 08:42:39;;;;;;;8.20;4.93;;;19.30;79.40;;;;;;10362848;28;20046;-58
2023/10/09 08:47:41;;;;;;;9.65;3.83;;;19.20;80.00;;;;;;10376022;28;20036;-58
2023/10/09 08:52:42;;;;;;;14.77;5.28;;;19.20;79.60;;;;;;10472597;28;20033;-58
2023/10/09 08:57:46;;;;;;;11.80;5.57;;;19.20;79.60;;;;;;10488633;28;20028;-58
2023/10/09 09:02:47;;;;;;;7.63;4.32;;;19.20;79.60;;;;;;10483246;28;20119;-57
2023/10/09 09:07:48;;;;;;;10.73;4.15;;;19.20;79.50;;;;;;10490368;28;20438;-59
2023/10/09 09:13:00;;;;;;;10.27;3.83;;;19.30;79.60;;;;;;10459052;28;20039;-59
2023/10/09 09:18:06;;;;;;;9.57;4.07;;;19.30;79.50;;;;;;10489579;28;20060;-59
2023/10/09 09:23:12;;;;;;;9.45;3.53;;;19.30;79.30;;;;;;10471119;28;20044;-58
2023/10/09 09:28:19;;;;;;;8.05;4.03;;;19.20;79.50;;;;;;10480378;28;20021;-58
2023/10/09 09:33:32;;;;;;;9.32;4.50;;;19.20;79.50;;;;;;10488631;28;20043;-59
2023/10/09 09:38:47;;;;;;;13.80;5.15;;;19.20;79.50;;;;;;10473874;28;20039;-59
2023/10/09 09:43:50;;;;;;;9.68;4.18;;;19.20;79.50;;;;;;10489728;28;20032;-58
2023/10/09 09:48:54;;;;;;;15.82;5.13;;;19.20;79.50;;;;;;10472445;28;20033;-59
2023/10/09 09:53:55;;;;;;;9.13;3.92;;;19.20;79.50;;;;;;10489516;28;20033;-59
2023/10/09 09:59:02;;;;;;;8.73;4.53;;;19.20;79.50;;;;;;10490087;28;20768;-59
2023/10/09 10:04:13;;;;;;;6.85;3.60;;;19.20;79.50;;;;;;10489575;28;20033;-58
2023/10/09 10:09:38;;;;;;;6.57;4.40;;;19.20;79.50;;;;;;10472524;28;20025;-58
2023/10/09 10:14:59;;;;;;;6.25;4.10;;;19.20;79.40;;;;;;10488056;28;20048;-58
2023/10/09 10:26:29;;;;;;;8.40;4.30;;;19.20;79.40;;;;;;10477620;28;20043;-59
2023/10/09 10:31:00;;;;;;;7.55;4.03;;;19.20;79.40;;;;;;10465616;28;20119;-58
2023/10/09 10:36:06;;;;;;;8.43;4.40;;;19.20;79.50;;;;;;10496727;28;20036;-58
2023/10/09 10:41:16;;;;;;;7.22;4.53;;;19.20;79.50;;;;;;10495910;28;20032;-60
2023/10/09 10:46:37;;;;;;;9.25;4.90;;;19.20;79.60;;;;;;10477680;28;20075;-59
2023/10/09 10:51:38;;;;;;;8.30;4.57;;;19.30;79.80;;;;;;10494494;28;20036;-58
2023/10/09 10:56:39;;;;;;;7.53;5.05;;;19.40;81.10;;;;;;10495786;28;20037;-58
2023/10/09 11:07:09;;;;;;;8.20;4.03;;;19.50;80.40;;;;;;10494615;28;20129;-57
2023/10/09 11:12:21;;;;;;;7.25;4.63;;;19.50;80.70;;;;;;10491111;28;20039;-59
2023/10/09 11:17:25;;;;;;;8.60;5.13;;;19.50;80.30;;;;;;10493148;28;20491;-59
2023/10/09 11:22:29;;;;;;;9.82;4.65;;;19.50;80.20;;;;;;10477607;28;20024;-59
2023/10/09 11:27:32;;;;;;;13.85;6.07;;;19.50;80.30;;;;;;10494251;28;20097;-60
2023/10/09 11:32:37;;;;;;;9.27;4.80;;;19.50;80.00;;;;;;10493074;28;20518;-59
2023/10/09 11:37:42;;;;;;;8.90;5.03;;;19.50;80.20;;;;;;10493856;28;20095;-58
2023/10/09 11:42:49;;;;;;;9.45;5.45;;;19.50;80.10;;;;;;10495689;28;20039;-60
2023/10/09 11:47:58;;;;;;;12.13;5.30;;;19.50;80.00;;;;;;10490615;28;20036;-58
2023/10/09 11:53:19;;;;;;;8.02;5.57;;;19.40;80.00;;;;;;10493412;28;20039;-59
2023/10/09 11:58:24;;;;;;;8.73;5.93;;;19.40;80.10;;;;;;10491707;28;20059;-58
2023/10/09 12:03:29;;;;;;;8.20;6.00;;;19.40;80.00;;;;;;10493670;28;20032;-57
2023/10/09 12:08:31;;;;;;;9.70;5.40;;;19.40;80.00;;;;;;10492717;28;20040;-58
2023/10/09 12:13:32;;;;;;;9.35;5.45;;;19.40;80.00;;;;;;10492407;28;20028;-57
2023/10/09 12:18:34;;;;;;;10.43;4.85;;;19.50;80.10;;;;;;10491715;28;20110;-59
2023/10/09 12:23:37;;;;;;;13.60;6.28;;;19.50;79.90;;;;;;10492571;28;20032;-60
2023/10/09 12:28:38;;;;;;;12.93;5.05;;;19.60;80.10;;;;;;10472831;28;20040;-60
2023/10/09 12:33:39;;;;;;;18.75;6.55;;;19.70;80.20;;;;;;10492205;28;20495;-58
2023/10/09 12:38:46;;;;;;;13.55;6.28;;;19.70;80.20;;;;;;10487697;28;20549;-58
2023/10/09 12:43:47;;;;;;;21.52;6.97;;;19.70;80.20;;;;;;10488579;28;20025;-59
2023/10/09 12:48:48;;;;;;;17.63;5.90;;;19.60;80.20;;;;;;10486665;28;20029;-59
2023/10/09 12:53:50;;;;;;;41.83;9.43;;;19.80;80.70;;;;;;10472892;28;20036;-60
2023/10/09 12:58:56;;;;;;;44.15;9.02;;;19.70;80.50;;;;;;10488863;28;20078;-59
2023/10/09 13:04:01;;;;;;;31.90;7.50;;;19.70;81.20;;;;;;10489572;28;20029;-59
2023/10/09 13:09:06;;;;;;;25.77;7.30;;;19.90;81.00;;;;;;10472891;28;20111;-58
2023/10/09 13:14:22;;;;;;;34.15;8.75;;;19.80;81.10;;;;;;10489725;28;20036;-58
2023/10/09 13:19:24;;;;;;;34.40;9.32;;;19.90;80.90;;;;;;10486872;28;20041;-60
2023/10/09 13:24:29;;;;;;;29.17;8.63;;;19.80;81.00;;;;;;10486788;28;20060;-59
2023/10/09 13:29:33;;;;;;;20.45;7.07;;;19.80;81.10;;;;;;10488299;28;20036;-60
2023/10/09 13:34:34;;;;;;;18.58;7.28;;;19.90;81.10;;;;;;10489675;28;20108;-61
2023/10/09 13:39:39;;;;;;;26.90;7.10;;;19.90;80.90;;;;;;10448579;28;20391;-57
2023/10/09 13:44:42;;;;;;;19.17;6.35;;;19.90;81.00;;;;;;10486778;28;20031;-59
2023/10/09 13:49:44;;;;;;;28.48;7.50;;;19.80;81.00;;;;;;10488415;28;20031;-59
2023/10/09 13:54:49;;;;;;;31.52;8.20;;;19.80;81.00;;;;;;10489201;28;20024;-59
2023/10/09 13:59:50;;;;;;;27.50;7.60;;;19.90;81.10;;;;;;10495974;28;20489;-59
2023/10/09 14:04:52;;;;;;;18.33;6.93;;;19.80;81.20;;;;;;10496802;28;20021;-60
2023/10/09 14:09:56;;;;;;;67.35;43.97;;;19.80;81.30;;;;;;10496260;28;20107;-59
2023/10/09 14:14:56;;;;;;;27.38;11.18;;;19.80;91.20;;;;;;10496099;28;20079;-57
2023/10/09 14:20:25;;;;;;;29.65;9.75;;;19.80;83.40;;;;;;10483244;28;20502;-59
2023/10/09 14:25:20;;;;;;;47.55;10.77;;;19.80;83.30;;;;;;10496835;28;20039;-59
2023/10/09 14:30:30;;;;;;;37.58;14.18;;;19.80;82.40;;;;;;10497313;28;20064;-59
2023/10/09 14:35:33;;;;;;;29.40;11.10;;;19.90;83.60;;;;;;10496140;28;20539;-58
2023/10/09 14:40:33;;;;;;;25.60;9.38;;;20.20;87.10;;;;;;10468835;28;20040;-58
2023/10/09 14:45:37;;;;;;;26.58;9.68;;;20.40;84.70;;;;;;10495948;28;20492;-58
2023/10/09 14:50:49;;;;;;;25.95;10.98;;;20.40;83.80;;;;;;10495532;28;20056;-59
2023/10/09 14:55:56;;;;;;;29.42;9.20;;;20.40;83.60;;;;;;10487687;28;20036;-58
2023/10/09 15:00:57;;;;;;;22.00;8.85;;;20.40;83.00;;;;;;10495404;28;20116;-59
2023/10/09 15:05:59;;;;;;;24.98;10.43;;;20.20;83.70;;;;;;10496017;28;20024;-59
2023/10/09 15:11:00;;;;;;;19.77;10.27;;;20.20;83.90;;;;;;10492806;28;20112;-58
2023/10/09 15:16:03;;;;;;;22.70;9.15;;;20.00;83.70;;;;;;10492774;28;20055;-58
2023/10/09 15:21:06;;;;;;;20.70;8.07;;;20.00;84.10;;;;;;10466478;28;20403;-58
2023/10/09 15:26:07;;;;;;;19.65;8.40;;;19.90;84.10;;;;;;10493906;28;20116;-59
2023/10/09 15:31:11;;;;;;;21.23;8.02;;;19.90;83.80;;;;;;10493681;28;20105;-57
2023/10/09 15:36:28;;;;;;;25.42;8.30;;;19.90;83.90;;;;;;10493388;28;20032;-59
2023/10/09 15:41:29;;;;;;;20.48;8.43;;;19.90;84.00;;;;;;10493097;28;20039;-59
2023/10/09 15:46:34;;;;;;;20.00;8.10;;;19.90;83.90;;;;;;10493770;28;20082;-58
2023/10/09 15:51:35;;;;;;;20.50;8.85;;;19.90;84.20;;;;;;10493679;28;20067;-56
2023/10/09 15:56:39;;;;;;;20.55;7.90;;;19.90;84.20;;;;;;10492677;28;20033;-58
2023/10/09 16:01:42;;;;;;;17.25;8.85;;;19.80;84.10;;;;;;10492485;28;20136;-58
2023/10/09 16:06:43;;;;;;;18.33;7.22;;;19.80;83.90;;;;;;10483931;28;20029;-59
2023/10/09 16:11:44;;;;;;;19.35;7.65;;;19.90;83.80;;;;;;10492481;28;20028;-56
2023/10/09 16:16:45;;;;;;;13.32;6.03;;;20.00;83.90;;;;;;10493590;28;20044;-57
2023/10/09 16:21:46;;;;;;;20.15;6.75;;;20.00;83.90;;;;;;10474091;28;20032;-59
2023/10/09 16:26:51;;;;;;;20.38;7.38;;;20.10;83.80;;;;;;10493109;28;20474;-60
2023/10/09 16:31:54;;;;;;;15.07;7.20;;;20.10;83.80;;;;;;10491034;28;20423;-58
2023/10/09 16:36:56;;;;;;;20.27;8.50;;;20.10;83.50;;;;;;10475771;28;20048;-58
2023/10/09 16:41:57;;;;;;;23.67;8.27;;;20.10;83.30;;;;;;10490732;28;20530;-58
2023/10/09 16:46:58;;;;;;;15.93;6.72;;;20.10;83.40;;;;;;10490749;28;20129;-57
2023/10/09 16:51:59;;;;;;;16.55;6.82;;;20.00;83.80;;;;;;10491811;28;20032;-57
2023/10/09 16:57:00;;;;;;;18.95;7.43;;;20.00;83.90;;;;;;10491533;28;20036;-58
2023/10/09 17:02:06;;;;;;;18.05;8.20;;;20.00;83.90;;;;;;10490447;28;20494;-58
2023/10/09 17:07:14;;;;;;;21.63;7.63;;;20.10;83.80;;;;;;10491427;28;20082;-56
2023/10/09 17:12:17;;;;;;;21.98;8.10;;;20.10;83.80;;;;;;10491155;28;20024;-58
2023/10/09 17:17:20;;;;;;;16.55;8.48;;;20.10;83.60;;;;;;10490995;28;20044;-58
2023/10/09 17:22:24;;;;;;;19.48;7.88;;;20.00;83.70;;;;;;10491188;28;20103;-60
2023/10/09 17:27:24;;;;;;;20.55;8.10;;;19.90;84.40;;;;;;10490617;28;20024;-57
2023/10/09 17:32:25;;;;;;;16.25;6.07;;;19.90;83.80;;;;;;10486909;28;20464;-58
2023/10/09 17:37:26;;;;;;;15.82;7.28;;;19.90;83.70;;;;;;10489685;28;20051;-57
2023/10/09 17:42:27;;;;;;;14.40;6.25;;;19.80;83.70;;;;;;10477999;28;20039;-58
2023/10/09 17:47:28;;;;;;;18.02;6.25;;;19.80;83.60;;;;;;10481772;28;20098;-58
2023/10/09 17:52:29;;;;;;;17.67;6.90;;;19.80;83.60;;;;;;10476569;28;20046;-58
2023/10/09 17:57:30;;;;;;;20.38;6.68;;;19.70;83.60;;;;;;10482532;28;20038;-58
2023/10/09 18:02:31;;;;;;;18.08;6.18;;;19.70;83.70;;;;;;10456195;28;20028;-56
2023/10/09 18:07:31;;;;;;;9.85;5.70;;;19.70;83.70;;;;;;10463840;28;20032;-56
2023/10/09 18:12:33;;;;;;;16.02;6.35;;;19.70;83.60;;;;;;10486533;28;20035;-57
2023/10/09 18:17:35;;;;;;;11.45;6.25;;;19.70;83.50;;;;;;10486789;28;20047;-57
2023/10/09 18:22:35;;;;;;;13.32;6.15;;;19.80;83.40;;;;;;10486597;28;20032;-58
2023/10/09 18:27:38;;;;;;;10.48;5.40;;;19.80;83.30;;;;;;10471846;28;20032;-57
2023/10/09 18:32:41;;;;;;;10.15;6.40;;;19.70;83.40;;;;;;10483546;28;20118;-57
2023/10/09 18:37:41;;;;;;;17.38;6.10;;;19.70;83.30;;;;;;10486740;28;20128;-56
2023/10/09 18:42:42;;;;;;;12.80;5.55;;;19.70;83.40;;;;;;10489575;28;20073;-56
2023/10/09 18:47:43;;;;;;;14.75;7.22;;;19.60;83.40;;;;;;10486275;28;20037;-57
2023/10/09 18:52:44;;;;;;;11.50;6.00;;;19.60;83.40;;;;;;10493468;28;20438;-57
2023/10/09 18:57:48;;;;;;;8.63;5.40;;;19.60;83.40;;;;;;10493380;28;20037;-57
2023/10/09 19:02:51;;;;;;;10.15;5.60;;;19.60;83.30;;;;;;10489801;28;20036;-57
2023/10/09 19:07:53;;;;;;;9.88;7.50;;;19.60;83.30;;;;;;10492187;28;20097;-57
2023/10/09 19:12:54;;;;;;;8.60;5.97;;;19.60;83.30;;;;;;10494353;28;20499;-57
2023/10/09 19:17:54;;;;;;;10.43;6.00;;;19.50;83.20;;;;;;10494899;28;20086;-58
2023/10/09 19:22:56;;;;;;;8.85;5.45;;;19.60;83.20;;;;;;10465034;28;20033;-58
2023/10/09 19:27:57;;;;;;;7.97;5.03;;;19.50;83.20;;;;;;10477123;28;20021;-57
2023/10/09 19:32:59;;;;;;;7.25;5.38;;;19.50;83.10;;;;;;10493819;28;20047;-57
2023/10/09 19:38:00;;;;;;;9.45;5.72;;;19.50;83.10;;;;;;10494863;28;20114;-58
2023/10/09 19:43:01;;;;;;;9.27;5.63;;;19.50;83.10;;;;;;10495006;28;20032;-57
2023/10/09 19:48:03;;;;;;;8.98;5.18;;;19.50;83.00;;;;;;10495540;28;20043;-57
2023/10/09 19:53:03;;;;;;;9.32;5.97;;;19.50;83.00;;;;;;10494691;28;20036;-57
2023/10/09 19:58:04;;;;;;;7.47;5.07;;;19.50;82.90;;;;;;10489432;28;20399;-58
2023/10/09 20:03:05;;;;;;;9.88;5.90;;;19.50;82.90;;;;;;10490857;28;20078;-57
2023/10/09 20:08:06;;;;;;;8.82;5.40;;;19.50;82.90;;;;;;10494690;28;20021;-58
2023/10/09 20:13:09;;;;;;;11.30;7.38;;;19.50;82.90;;;;;;10493689;28;20040;-57
2023/10/09 20:18:10;;;;;;;9.02;5.40;;;19.50;82.80;;;;;;10493846;28;20052;-58
2023/10/09 20:23:20;;;;;;;6.80;5.25;;;19.50;82.90;;;;;;10492830;28;20086;-58
2023/10/09 20:28:21;;;;;;;7.50;5.05;;;19.50;82.80;;;;;;10493697;28;20029;-58
2023/10/09 20:33:22;;;;;;;11.00;5.57;;;19.50;82.80;;;;;;10493693;28;20034;-58
2023/10/09 20:38:25;;;;;;;6.85;4.50;;;19.50;82.80;;;;;;10493004;28;20083;-58
2023/10/09 20:43:27;;;;;;;8.75;5.43;;;19.40;82.70;;;;;;10479200;28;20044;-56
2023/10/09 20:48:28;;;;;;;8.07;6.40;;;19.50;82.70;;;;;;10492246;28;20123;-58
2023/10/09 20:53:30;;;;;;;8.80;6.43;;;19.40;82.60;;;;;;10492349;28;20047;-57
2023/10/09 20:58:31;;;;;;;5.95;4.47;;;19.40;82.60;;;;;;10483361;28;20087;-58
2023/10/09 21:03:32;;;;;;;9.43;5.50;;;19.40;82.50;;;;;;10491219;28;20037;-57
2023/10/09 21:08:32;;;;;;;8.43;4.63;;;19.40;82.60;;;;;;10491380;28;20668;-58
2023/10/09 21:13:33;;;;;;;5.97;4.65;;;19.40;82.50;;;;;;10491849;28;20051;-58
2023/10/09 21:18:35;;;;;;;6.05;4.82;;;19.40;82.50;;;;;;10491333;28;20057;-58
2023/10/09 21:23:36;;;;;;;6.55;4.57;;;19.40;82.50;;;;;;10491736;28;20115;-57
2023/10/09 21:28:37;;;;;;;7.03;5.55;;;19.40;82.50;;;;;;10491833;28;20363;-57
2023/10/09 21:33:38;;;;;;;5.72;4.10;;;19.40;82.50;;;;;;10490993;28;20032;-57
2023/10/09 21:38:39;;;;;;;6.90;4.22;;;19.40;82.50;;;;;;10491360;28;20039;-57
2023/10/09 21:43:41;;;;;;;6.97;4.60;;;19.40;82.40;;;;;;10490740;28;20367;-57
2023/10/09 21:48:42;;;;;;;5.72;4.45;;;19.40;82.40;;;;;;10490923;28;20402;-57
2023/10/09 21:53:43;;;;;;;6.57;4.95;;;19.40;82.40;;;;;;10491192;28;20500;-57
2023/10/09 21:58:44;;;;;;;6.72;5.20;;;19.40;82.30;;;;;;10480771;28;20033;-58
2023/10/09 22:03:45;;;;;;;7.30;4.97;;;19.40;82.40;;;;;;10490603;28;20407;-58
2023/10/09 22:08:45;;;;;;;6.15;4.45;;;19.40;82.40;;;;;;10490921;28;20036;-58
2023/10/09 22:13:46;;;;;;;6.68;5.13;;;19.40;82.30;;;;;;10490613;28;20059;-58
2023/10/09 22:18:51;;;;;;;6.03;4.57;;;19.40;82.30;;;;;;10494460;28;20044;-58
2023/10/09 22:23:54;;;;;;;7.35;4.47;;;19.40;82.20;;;;;;10497890;28;20464;-58
2023/10/09 22:28:56;;;;;;;7.25;4.38;;;19.40;82.20;;;;;;10480322;28;20040;-58
2023/10/09 22:34:08;;;;;;;5.75;5.00;;;19.40;82.30;;;;;;10497773;28;20568;-57
2023/10/09 22:39:19;;;;;;;6.28;4.45;;;19.40;82.20;;;;;;10498330;28;20033;-58
2023/10/09 22:44:21;;;;;;;6.28;4.75;;;19.40;82.20;;;;;;10497510;28;20051;-58
2023/10/09 22:49:24;;;;;;;5.88;4.70;;;19.30;82.10;;;;;;10497442;28;20078;-58
2023/10/09 22:54:34;;;;;;;6.22;5.15;;;19.40;82.10;;;;;;10496851;28;20086;-58
2023/10/09 22:59:44;;;;;;;6.78;4.30;;;19.30;82.10;;;;;;10497045;28;20033;-58
2023/10/09 23:04:49;;;;;;;5.88;4.75;;;19.30;82.00;;;;;;10496450;28;20110;-58
2023/10/09 23:09:50;;;;;;;5.60;4.53;;;19.30;82.00;;;;;;10496916;28;20472;-57
2023/10/09 23:14:55;;;;;;;7.80;4.65;;;19.30;82.00;;;;;;10496283;28;20055;-58
2023/10/09 23:19:56;;;;;;;6.38;4.75;;;19.30;82.00;;;;;;10496671;28;20035;-58
2023/10/09 23:25:09;;;;;;;6.78;4.78;;;19.40;82.00;;;;;;10496101;28;20028;-58
2023/10/09 23:35:21;;;;;;;6.25;4.10;;;19.30;81.90;;;;;;10495808;28;20048;-57
2023/10/09 23:40:37;;;;;;;6.57;5.07;;;19.30;81.90;;;;;;10495571;28;20524;-58
2023/10/09 23:45:43;;;;;;;4.68;3.97;;;19.30;81.90;;;;;;10494947;28;20060;-58
2023/10/09 23:50:45;;;;;;;6.05;4.15;;;19.30;81.90;;;;;;10495305;28;20028;-57
2023/10/09 23:55:50;;;;;;;6.45;4.88;;;19.30;81.90;;;;;;10494726;28;20032;-58
